N571GT KHND-KAPA
Flight info
| Callsign | N571GT |
|---|---|
| Flight time | N/A |
| Altitude | 35000 |
| Route | SCAMR4 HOCEE STIFS |
| Aircraft | C525/L-SDFGRWY/S |
Departure
| Time | 2026-05-06 01:41 |
|---|---|
| Airport | Henderson Executive Airport (KHND) |
Arrival
| Time | N/A |
|---|---|
| Airport | Centennial Airport (KAPA) |
| Time | Latitude | Longitude | Altitude | Speed | Heading |
|---|---|---|---|---|---|
| 2026-05-06 01:16 | 35.97731 | -115.13774 | 2418 ft | 0 kts | 181° |
| 2026-05-06 01:33 | 35.97726 | -115.13775 | 2418 ft | 1 kts | 181° |
| 2026-05-06 01:33 | 35.97716 | -115.13774 | 2419 ft | 2 kts | 164° |
| 2026-05-06 01:33 | 35.97697 | -115.13756 | 2420 ft | 4 kts | 129° |
| 2026-05-06 01:33 | 35.97685 | -115.13734 | 2421 ft | 2 kts | 125° |
| 2026-05-06 01:34 | 35.97671 | -115.13711 | 2422 ft | 3 kts | 128° |
| 2026-05-06 01:34 | 35.97643 | -115.13692 | 2423 ft | 7 kts | 179° |
| 2026-05-06 01:34 | 35.97572 | -115.13693 | 2427 ft | 10 kts | 180° |
| 2026-05-06 01:34 | 35.97514 | -115.13693 | 2430 ft | 8 kts | 179° |
| 2026-05-06 01:35 | 35.97458 | -115.13690 | 2432 ft | 6 kts | 160° |
| 2026-05-06 01:35 | 35.97437 | -115.13650 | 2432 ft | 6 kts | 132° |
| 2026-05-06 01:35 | 35.97395 | -115.13643 | 2434 ft | 6 kts | 180° |
| 2026-05-06 01:35 | 35.97341 | -115.13644 | 2436 ft | 8 kts | 180° |
| 2026-05-06 01:36 | 35.97270 | -115.13644 | 2439 ft | 11 kts | 180° |
| 2026-05-06 01:36 | 35.97184 | -115.13646 | 2443 ft | 12 kts | 181° |
| 2026-05-06 01:36 | 35.97091 | -115.13648 | 2447 ft | 14 kts | 181° |
| 2026-05-06 01:36 | 35.96993 | -115.13648 | 2453 ft | 13 kts | 179° |
| 2026-05-06 01:37 | 35.96903 | -115.13650 | 2459 ft | 12 kts | 181° |
| 2026-05-06 01:37 | 35.96818 | -115.13650 | 2464 ft | 11 kts | 181° |
| 2026-05-06 01:37 | 35.96739 | -115.13651 | 2470 ft | 11 kts | 180° |
| 2026-05-06 01:37 | 35.96659 | -115.13652 | 2474 ft | 12 kts | 181° |
| 2026-05-06 01:38 | 35.96569 | -115.13655 | 2478 ft | 13 kts | 185° |
| 2026-05-06 01:38 | 35.96478 | -115.13654 | 2483 ft | 12 kts | 180° |
| 2026-05-06 01:38 | 35.96392 | -115.13656 | 2488 ft | 10 kts | 181° |
| 2026-05-06 01:38 | 35.96338 | -115.13655 | 2492 ft | 5 kts | 172° |
| 2026-05-06 01:39 | 35.96316 | -115.13638 | 2493 ft | 3 kts | 118° |
| 2026-05-06 01:39 | 35.96313 | -115.13591 | 2493 ft | 8 kts | 89° |
| 2026-05-06 01:39 | 35.96355 | -115.13552 | 2491 ft | 10 kts | 354° |
| 2026-05-06 01:39 | 35.96439 | -115.13554 | 2487 ft | 15 kts | 0° |
| 2026-05-06 01:40 | 35.96695 | -115.13552 | 2473 ft | 68 kts | 360° |
| 2026-05-06 01:40 | 35.97366 | -115.13542 | 2437 ft | 123 kts | 359° |
| 2026-05-06 01:40 | 35.98327 | -115.13537 | 2572 ft | 147 kts | 359° |
| 2026-05-06 01:40 | 35.99407 | -115.13478 | 2892 ft | 163 kts | 4° |
| 2026-05-06 01:41 | 36.00451 | -115.12803 | 3189 ft | 181 kts | 52° |
| 2026-05-06 01:41 | 36.00987 | -115.11329 | 3515 ft | 196 kts | 85° |
| 2026-05-06 01:41 | 36.00953 | -115.09624 | 4010 ft | 202 kts | 104° |
| 2026-05-06 01:41 | 36.00760 | -115.07890 | 4540 ft | 210 kts | 101° |
| 2026-05-06 01:42 | 36.00676 | -115.06102 | 5092 ft | 211 kts | 95° |
| 2026-05-06 01:42 | 36.00714 | -115.04275 | 5638 ft | 212 kts | 92° |
| 2026-05-06 01:42 | 36.00784 | -115.02426 | 5938 ft | 224 kts | 95° |
| 2026-05-06 01:42 | 36.00453 | -115.00484 | 6000 ft | 242 kts | 117° |
| 2026-05-06 01:43 | 35.99407 | -114.98786 | 6065 ft | 253 kts | 145° |
| 2026-05-06 01:43 | 35.97832 | -114.97804 | 6344 ft | 254 kts | 169° |
| 2026-05-06 01:43 | 35.96149 | -114.97419 | 6909 ft | 247 kts | 173° |
| 2026-05-06 01:43 | 35.94466 | -114.97020 | 7450 ft | 244 kts | 170° |
| 2026-05-06 01:44 | 35.92848 | -114.96429 | 7984 ft | 243 kts | 159° |
| 2026-05-06 01:44 | 35.91448 | -114.95291 | 8518 ft | 243 kts | 140° |
| 2026-05-06 01:44 | 35.90432 | -114.93623 | 9062 ft | 244 kts | 121° |
| 2026-05-06 01:44 | 35.89888 | -114.91640 | 9613 ft | 246 kts | 105° |
| 2026-05-06 01:45 | 35.89796 | -114.89555 | 10157 ft | 247 kts | 92° |
| 2026-05-06 01:45 | 35.89851 | -114.87455 | 10709 ft | 244 kts | 93° |
| 2026-05-06 01:45 | 35.89849 | -114.85388 | 11260 ft | 240 kts | 95° |
| 2026-05-06 01:45 | 35.89779 | -114.83360 | 11816 ft | 237 kts | 96° |
| 2026-05-06 01:46 | 35.89730 | -114.81329 | 12278 ft | 239 kts | 94° |
| 2026-05-06 01:46 | 35.89748 | -114.79249 | 12645 ft | 245 kts | 93° |
| 2026-05-06 01:46 | 35.89784 | -114.77145 | 13081 ft | 246 kts | 92° |
| 2026-05-06 01:46 | 35.89813 | -114.75043 | 13487 ft | 249 kts | 92° |
| 2026-05-06 01:47 | 35.89831 | -114.72914 | 13889 ft | 252 kts | 93° |
| 2026-05-06 01:47 | 35.89843 | -114.70710 | 14214 ft | 260 kts | 94° |
| 2026-05-06 01:47 | 35.89854 | -114.68523 | 14747 ft | 258 kts | 94° |
| 2026-05-06 01:47 | 35.89863 | -114.66282 | 15112 ft | 263 kts | 95° |
| 2026-05-06 01:48 | 35.89872 | -114.64010 | 15533 ft | 266 kts | 94° |
| 2026-05-06 01:48 | 35.89881 | -114.61737 | 16001 ft | 266 kts | 95° |
| 2026-05-06 01:48 | 35.89890 | -114.59473 | 16449 ft | 266 kts | 95° |
| 2026-05-06 01:48 | 35.89893 | -114.57215 | 16952 ft | 263 kts | 96° |
| 2026-05-06 01:49 | 35.89881 | -114.54958 | 17436 ft | 261 kts | 96° |
| 2026-05-06 01:49 | 35.89863 | -114.52714 | 17823 ft | 264 kts | 96° |
| 2026-05-06 01:49 | 35.89847 | -114.50455 | 18272 ft | 263 kts | 96° |
| 2026-05-06 01:49 | 35.89831 | -114.48193 | 18683 ft | 263 kts | 97° |
| 2026-05-06 01:50 | 35.89817 | -114.45925 | 19038 ft | 267 kts | 97° |
| 2026-05-06 01:50 | 35.89800 | -114.43614 | 19268 ft | 276 kts | 96° |
| 2026-05-06 01:50 | 35.89781 | -114.41223 | 19507 ft | 284 kts | 96° |
| 2026-05-06 01:50 | 35.89763 | -114.38747 | 19744 ft | 291 kts | 96° |
| 2026-05-06 01:51 | 35.89748 | -114.36546 | 19949 ft | 297 kts | 95° |
| 2026-05-06 01:51 | 35.89730 | -114.33951 | 20179 ft | 304 kts | 96° |
| 2026-05-06 01:51 | 35.89711 | -114.31286 | 20415 ft | 311 kts | 96° |
| 2026-05-06 01:51 | 35.89690 | -114.28580 | 20656 ft | 317 kts | 95° |
| 2026-05-06 01:52 | 35.89669 | -114.25857 | 20879 ft | 322 kts | 96° |
| 2026-05-06 01:52 | 35.89646 | -114.23047 | 21120 ft | 328 kts | 96° |
| 2026-05-06 01:52 | 35.89624 | -114.20244 | 21503 ft | 326 kts | 95° |
| 2026-05-06 01:52 | 35.89601 | -114.17430 | 21665 ft | 333 kts | 95° |
| 2026-05-06 01:53 | 35.89576 | -114.14560 | 22044 ft | 332 kts | 95° |
| 2026-05-06 01:53 | 35.89552 | -114.11726 | 22416 ft | 331 kts | 96° |
| 2026-05-06 01:53 | 35.89527 | -114.08924 | 22786 ft | 329 kts | 95° |
| 2026-05-06 01:53 | 35.89500 | -114.06081 | 23118 ft | 330 kts | 96° |
| 2026-05-06 01:54 | 35.89471 | -114.03251 | 23432 ft | 331 kts | 96° |
| 2026-05-06 01:54 | 35.89443 | -114.00427 | 23743 ft | 331 kts | 96° |
| 2026-05-06 01:54 | 35.89413 | -113.97584 | 24000 ft | 333 kts | 98° |
| 2026-05-06 01:54 | 35.89384 | -113.94735 | 24245 ft | 336 kts | 97° |
| 2026-05-06 01:55 | 35.89351 | -113.91821 | 24494 ft | 339 kts | 98° |
| 2026-05-06 01:55 | 35.89319 | -113.88905 | 24732 ft | 341 kts | 98° |
| 2026-05-06 01:55 | 35.89286 | -113.85993 | 24974 ft | 343 kts | 98° |
| 2026-05-06 01:55 | 35.89254 | -113.83038 | 25209 ft | 345 kts | 99° |
| 2026-05-06 01:56 | 35.89218 | -113.80090 | 25451 ft | 346 kts | 99° |
| 2026-05-06 01:56 | 35.89183 | -113.77135 | 25683 ft | 348 kts | 99° |
| 2026-05-06 01:56 | 35.89148 | -113.74140 | 25930 ft | 349 kts | 100° |
| 2026-05-06 01:56 | 35.89110 | -113.71137 | 26171 ft | 350 kts | 101° |
| 2026-05-06 01:57 | 35.89072 | -113.68151 | 26408 ft | 351 kts | 101° |
| 2026-05-06 01:57 | 35.89033 | -113.65128 | 26643 ft | 353 kts | 101° |
| 2026-05-06 01:57 | 35.88993 | -113.62092 | 26877 ft | 354 kts | 100° |
| 2026-05-06 01:57 | 35.88952 | -113.59049 | 27118 ft | 355 kts | 101° |
| 2026-05-06 01:58 | 35.88912 | -113.56048 | 27353 ft | 356 kts | 101° |
| 2026-05-06 01:58 | 35.88953 | -113.52938 | 27594 ft | 362 kts | 96° |
| 2026-05-06 01:58 | 35.89219 | -113.49850 | 27828 ft | 368 kts | 88° |
| 2026-05-06 01:58 | 35.89719 | -113.46741 | 28068 ft | 372 kts | 84° |
| 2026-05-06 01:59 | 35.90292 | -113.43595 | 28307 ft | 373 kts | 85° |
| 2026-05-06 01:59 | 35.90832 | -113.40489 | 28543 ft | 372 kts | 86° |
| 2026-05-06 01:59 | 35.91345 | -113.37357 | 28780 ft | 372 kts | 86° |
| 2026-05-06 01:59 | 35.91837 | -113.34236 | 29009 ft | 373 kts | 88° |
| 2026-05-06 02:00 | 35.92339 | -113.30984 | 29256 ft | 372 kts | 89° |
| 2026-05-06 02:00 | 35.92823 | -113.27829 | 29511 ft | 372 kts | 89° |
| 2026-05-06 02:00 | 35.93296 | -113.24734 | 29772 ft | 372 kts | 88° |
| 2026-05-06 02:00 | 35.93773 | -113.21610 | 30024 ft | 372 kts | 90° |
| 2026-05-06 02:01 | 35.94254 | -113.18460 | 30280 ft | 372 kts | 88° |
| 2026-05-06 02:01 | 35.94732 | -113.15323 | 30499 ft | 374 kts | 89° |
| 2026-05-06 02:01 | 35.95211 | -113.12159 | 30704 ft | 375 kts | 89° |
| 2026-05-06 02:01 | 35.95690 | -113.09003 | 30906 ft | 377 kts | 88° |
| 2026-05-06 02:02 | 35.96176 | -113.05803 | 31120 ft | 378 kts | 88° |
| 2026-05-06 02:02 | 35.96653 | -113.02643 | 31327 ft | 380 kts | 88° |
| 2026-05-06 02:02 | 35.97144 | -112.99397 | 31534 ft | 381 kts | 88° |
| 2026-05-06 02:02 | 35.97629 | -112.96182 | 31736 ft | 383 kts | 87° |
| 2026-05-06 02:03 | 35.98114 | -112.92955 | 31945 ft | 384 kts | 88° |
| 2026-05-06 02:03 | 35.98599 | -112.89725 | 32156 ft | 385 kts | 88° |
| 2026-05-06 02:03 | 35.99084 | -112.86491 | 32361 ft | 386 kts | 88° |
| 2026-05-06 02:03 | 35.99571 | -112.83236 | 32568 ft | 387 kts | 88° |
| 2026-05-06 02:04 | 36.00054 | -112.80001 | 32764 ft | 388 kts | 87° |
| 2026-05-06 02:04 | 36.00541 | -112.76729 | 32971 ft | 389 kts | 87° |
| 2026-05-06 02:04 | 36.01031 | -112.73435 | 33172 ft | 390 kts | 87° |
| 2026-05-06 02:04 | 36.01521 | -112.70136 | 33385 ft | 391 kts | 86° |
| 2026-05-06 02:05 | 36.02008 | -112.66847 | 33606 ft | 392 kts | 86° |
| 2026-05-06 02:05 | 36.02497 | -112.63538 | 33831 ft | 393 kts | 86° |
| 2026-05-06 02:05 | 36.02987 | -112.60220 | 34058 ft | 394 kts | 87° |
| 2026-05-06 02:05 | 36.03481 | -112.56860 | 34284 ft | 395 kts | 87° |
| 2026-05-06 02:06 | 36.03970 | -112.53529 | 34512 ft | 396 kts | 87° |
| 2026-05-06 02:06 | 36.04464 | -112.50163 | 34730 ft | 397 kts | 86° |
| 2026-05-06 02:06 | 36.04958 | -112.46786 | 34965 ft | 398 kts | 85° |
| 2026-05-06 02:06 | 36.05450 | -112.43409 | 35018 ft | 405 kts | 86° |
| 2026-05-06 02:07 | 36.06464 | -112.36411 | 35030 ft | 420 kts | 86° |
| 2026-05-06 02:07 | 36.07524 | -112.29101 | 35036 ft | 433 kts | 85° |
| 2026-05-06 02:08 | 36.08593 | -112.21703 | 35056 ft | 444 kts | 85° |
| 2026-05-06 02:08 | 36.09688 | -112.14087 | 35065 ft | 454 kts | 85° |
| 2026-05-06 02:09 | 36.10618 | -112.07583 | 35054 ft | 461 kts | 84° |